sensor_id;sensor_type;location;lat;lon;timestamp;P1;durP1;ratioP1;P2;durP2;ratioP2
15567;SDS011;7885;42.596;23.044;2023-01-05T00:01:18;59.80;;;41.17;;
15567;SDS011;7885;42.596;23.044;2023-01-05T00:03:46;58.07;;;41.83;;
15567;SDS011;7885;42.596;23.044;2023-01-05T00:06:13;62.03;;;43.47;;
15567;SDS011;7885;42.596;23.044;2023-01-05T00:08:41;60.50;;;41.67;;
15567;SDS011;7885;42.596;23.044;2023-01-05T00:11:09;62.00;;;45.03;;
15567;SDS011;7885;42.596;23.044;2023-01-05T00:13:55;146.13;;;76.80;;
15567;SDS011;7885;42.596;23.044;2023-01-05T00:16:39;67.73;;;44.57;;
15567;SDS011;7885;42.596;23.044;2023-01-05T00:19:25;69.40;;;45.10;;
15567;SDS011;7885;42.596;23.044;2023-01-05T00:22:12;98.33;;;53.13;;
15567;SDS011;7885;42.596;23.044;2023-01-05T00:24:55;54.27;;;39.13;;
15567;SDS011;7885;42.596;23.044;2023-01-05T00:27:22;51.30;;;36.50;;
15567;SDS011;7885;42.596;23.044;2023-01-05T00:29:49;49.50;;;37.50;;
15567;SDS011;7885;42.596;23.044;2023-01-05T00:32:16;44.33;;;32.53;;
15567;SDS011;7885;42.596;23.044;2023-01-05T00:34:44;32.17;;;24.37;;
15567;SDS011;7885;42.596;23.044;2023-01-05T00:37:11;42.83;;;29.20;;
15567;SDS011;7885;42.596;23.044;2023-01-05T00:39:38;37.23;;;28.23;;
15567;SDS011;7885;42.596;23.044;2023-01-05T00:42:05;44.73;;;31.90;;
15567;SDS011;7885;42.596;23.044;2023-01-05T00:44:31;42.23;;;31.37;;
15567;SDS011;7885;42.596;23.044;2023-01-05T00:46:58;47.77;;;34.77;;
15567;SDS011;7885;42.596;23.044;2023-01-05T00:49:25;54.93;;;36.27;;
15567;SDS011;7885;42.596;23.044;2023-01-05T00:51:53;55.70;;;39.13;;
15567;SDS011;7885;42.596;23.044;2023-01-05T00:54:20;56.17;;;40.07;;
15567;SDS011;7885;42.596;23.044;2023-01-05T00:56:47;53.97;;;37.93;;
15567;SDS011;7885;42.596;23.044;2023-01-05T00:59:14;52.87;;;37.70;;
15567;SDS011;7885;42.596;23.044;2023-01-05T01:01:43;52.27;;;38.33;;
15567;SDS011;7885;42.596;23.044;2023-01-05T01:04:11;51.20;;;36.63;;
15567;SDS011;7885;42.596;23.044;2023-01-05T01:06:38;53.57;;;37.93;;
15567;SDS011;7885;42.596;23.044;2023-01-05T01:09:06;54.07;;;37.77;;
15567;SDS011;7885;42.596;23.044;2023-01-05T01:11:33;55.43;;;38.63;;
15567;SDS011;7885;42.596;23.044;2023-01-05T01:14:00;59.70;;;43.33;;
15567;SDS011;7885;42.596;23.044;2023-01-05T01:16:27;60.93;;;46.50;;
15567;SDS011;7885;42.596;23.044;2023-01-05T01:18:55;63.70;;;50.77;;
15567;SDS011;7885;42.596;23.044;2023-01-05T01:21:22;62.80;;;48.00;;
15567;SDS011;7885;42.596;23.044;2023-01-05T01:23:49;59.63;;;44.60;;
15567;SDS011;7885;42.596;23.044;2023-01-05T01:26:17;69.07;;;45.77;;
15567;SDS011;7885;42.596;23.044;2023-01-05T01:28:45;69.67;;;47.30;;
15567;SDS011;7885;42.596;23.044;2023-01-05T01:31:12;71.53;;;47.30;;
15567;SDS011;7885;42.596;23.044;2023-01-05T01:33:39;62.07;;;44.07;;
15567;SDS011;7885;42.596;23.044;2023-01-05T01:36:06;75.97;;;50.23;;
15567;SDS011;7885;42.596;23.044;2023-01-05T01:38:35;74.13;;;50.00;;
15567;SDS011;7885;42.596;23.044;2023-01-05T01:41:02;59.37;;;42.00;;
15567;SDS011;7885;42.596;23.044;2023-01-05T01:43:41;54.37;;;37.50;;
15567;SDS011;7885;42.596;23.044;2023-01-05T01:46:10;46.13;;;34.63;;
15567;SDS011;7885;42.596;23.044;2023-01-05T01:48:37;44.33;;;32.97;;
15567;SDS011;7885;42.596;23.044;2023-01-05T01:51:08;33.70;;;26.87;;
15567;SDS011;7885;42.596;23.044;2023-01-05T01:53:39;28.03;;;21.40;;
15567;SDS011;7885;42.596;23.044;2023-01-05T01:56:10;28.57;;;21.63;;
15567;SDS011;7885;42.596;23.044;2023-01-05T01:58:43;30.57;;;23.37;;
15567;SDS011;7885;42.596;23.044;2023-01-05T02:01:10;35.83;;;27.30;;
15567;SDS011;7885;42.596;23.044;2023-01-05T02:03:37;34.97;;;29.80;;
15567;SDS011;7885;42.596;23.044;2023-01-05T02:06:05;27.70;;;22.77;;
15567;SDS011;7885;42.596;23.044;2023-01-05T02:08:33;29.07;;;23.30;;
15567;SDS011;7885;42.596;23.044;2023-01-05T02:11:04;32.40;;;26.03;;
15567;SDS011;7885;42.596;23.044;2023-01-05T02:13:53;40.60;;;31.27;;
15567;SDS011;7885;42.596;23.044;2023-01-05T02:16:34;41.00;;;31.60;;
15567;SDS011;7885;42.596;23.044;2023-01-05T02:22:25;41.00;;;32.50;;
15567;SDS011;7885;42.596;23.044;2023-01-05T02:25:19;39.83;;;30.20;;
15567;SDS011;7885;42.596;23.044;2023-01-05T02:28:11;37.27;;;28.77;;
15567;SDS011;7885;42.596;23.044;2023-01-05T02:31:00;37.17;;;27.17;;
15567;SDS011;7885;42.596;23.044;2023-01-05T02:33:39;34.87;;;26.23;;
15567;SDS011;7885;42.596;23.044;2023-01-05T02:36:21;38.67;;;29.27;;
15567;SDS011;7885;42.596;23.044;2023-01-05T02:38:55;37.30;;;28.83;;
15567;SDS011;7885;42.596;23.044;2023-01-05T02:41:28;32.90;;;25.40;;
15567;SDS011;7885;42.596;23.044;2023-01-05T02:43:59;24.67;;;19.53;;
15567;SDS011;7885;42.596;23.044;2023-01-05T02:46:29;22.37;;;18.37;;
15567;SDS011;7885;42.596;23.044;2023-01-05T02:48:56;26.20;;;20.57;;
15567;SDS011;7885;42.596;23.044;2023-01-05T02:51:26;25.07;;;18.87;;
15567;SDS011;7885;42.596;23.044;2023-01-05T02:53:58;23.67;;;18.50;;
15567;SDS011;7885;42.596;23.044;2023-01-05T02:56:31;23.70;;;18.73;;
15567;SDS011;7885;42.596;23.044;2023-01-05T02:59:03;27.63;;;18.67;;
15567;SDS011;7885;42.596;23.044;2023-01-05T03:01:37;29.90;;;20.43;;
15567;SDS011;7885;42.596;23.044;2023-01-05T03:04:08;26.50;;;18.30;;
15567;SDS011;7885;42.596;23.044;2023-01-05T03:06:39;21.53;;;16.27;;
15567;SDS011;7885;42.596;23.044;2023-01-05T03:09:12;21.00;;;15.43;;
15567;SDS011;7885;42.596;23.044;2023-01-05T03:11:42;18.10;;;15.27;;
15567;SDS011;7885;42.596;23.044;2023-01-05T03:14:34;20.17;;;16.17;;
15567;SDS011;7885;42.596;23.044;2023-01-05T03:17:05;22.97;;;16.73;;
15567;SDS011;7885;42.596;23.044;2023-01-05T03:19:36;21.03;;;16.73;;
15567;SDS011;7885;42.596;23.044;2023-01-05T03:22:07;22.53;;;17.23;;
15567;SDS011;7885;42.596;23.044;2023-01-05T03:24:55;26.33;;;20.90;;
15567;SDS011;7885;42.596;23.044;2023-01-05T03:27:40;26.60;;;19.37;;
15567;SDS011;7885;42.596;23.044;2023-01-05T03:30:26;26.07;;;19.80;;
15567;SDS011;7885;42.596;23.044;2023-01-05T03:33:20;27.37;;;20.03;;
15567;SDS011;7885;42.596;23.044;2023-01-05T03:36:11;26.23;;;18.47;;
15567;SDS011;7885;42.596;23.044;2023-01-05T03:38:42;25.03;;;19.57;;
15567;SDS011;7885;42.596;23.044;2023-01-05T03:41:12;25.27;;;19.47;;
15567;SDS011;7885;42.596;23.044;2023-01-05T03:43:41;24.40;;;18.63;;
15567;SDS011;7885;42.596;23.044;2023-01-05T03:46:09;27.87;;;20.43;;
15567;SDS011;7885;42.596;23.044;2023-01-05T03:48:40;26.37;;;20.30;;
15567;SDS011;7885;42.596;23.044;2023-01-05T03:51:07;26.03;;;21.03;;
15567;SDS011;7885;42.596;23.044;2023-01-05T03:53:34;33.27;;;24.87;;
15567;SDS011;7885;42.596;23.044;2023-01-05T03:56:00;34.83;;;27.13;;
15567;SDS011;7885;42.596;23.044;2023-01-05T03:58:27;37.33;;;27.87;;
15567;SDS011;7885;42.596;23.044;2023-01-05T04:00:54;31.53;;;24.20;;
15567;SDS011;7885;42.596;23.044;2023-01-05T04:03:21;30.87;;;23.47;;
15567;SDS011;7885;42.596;23.044;2023-01-05T04:05:49;32.70;;;25.47;;
15567;SDS011;7885;42.596;23.044;2023-01-05T04:08:16;31.00;;;22.83;;
15567;SDS011;7885;42.596;23.044;2023-01-05T04:10:43;36.43;;;27.37;;
15567;SDS011;7885;42.596;23.044;2023-01-05T04:13:10;36.50;;;26.00;;
15567;SDS011;7885;42.596;23.044;2023-01-05T04:15:37;33.70;;;25.33;;
15567;SDS011;7885;42.596;23.044;2023-01-05T04:18:05;32.50;;;25.47;;
15567;SDS011;7885;42.596;23.044;2023-01-05T04:20:31;39.87;;;29.43;;
15567;SDS011;7885;42.596;23.044;2023-01-05T04:23:00;36.87;;;30.80;;
15567;SDS011;7885;42.596;23.044;2023-01-05T04:25:27;42.13;;;32.53;;
15567;SDS011;7885;42.596;23.044;2023-01-05T04:27:53;34.67;;;27.40;;
15567;SDS011;7885;42.596;23.044;2023-01-05T04:30:20;35.17;;;27.50;;
15567;SDS011;7885;42.596;23.044;2023-01-05T04:32:47;18.93;;;15.20;;
15567;SDS011;7885;42.596;23.044;2023-01-05T04:35:14;16.60;;;14.50;;
15567;SDS011;7885;42.596;23.044;2023-01-05T04:37:41;30.70;;;24.37;;
15567;SDS011;7885;42.596;23.044;2023-01-05T04:40:10;25.97;;;21.17;;
15567;SDS011;7885;42.596;23.044;2023-01-05T04:42:37;18.50;;;14.97;;
15567;SDS011;7885;42.596;23.044;2023-01-05T04:45:04;13.20;;;11.33;;
15567;SDS011;7885;42.596;23.044;2023-01-05T04:47:31;23.87;;;17.40;;
15567;SDS011;7885;42.596;23.044;2023-01-05T04:49:58;27.70;;;21.87;;
15567;SDS011;7885;42.596;23.044;2023-01-05T04:52:25;28.93;;;23.80;;
15567;SDS011;7885;42.596;23.044;2023-01-05T04:54:51;47.63;;;38.77;;
15567;SDS011;7885;42.596;23.044;2023-01-05T04:57:20;34.37;;;29.53;;
15567;SDS011;7885;42.596;23.044;2023-01-05T04:59:47;37.77;;;32.33;;
15567;SDS011;7885;42.596;23.044;2023-01-05T05:02:13;43.97;;;34.50;;
15567;SDS011;7885;42.596;23.044;2023-01-05T05:04:40;47.90;;;38.50;;
15567;SDS011;7885;42.596;23.044;2023-01-05T05:07:07;49.73;;;40.17;;
15567;SDS011;7885;42.596;23.044;2023-01-05T05:09:34;53.03;;;39.57;;
15567;SDS011;7885;42.596;23.044;2023-01-05T05:12:01;65.67;;;51.23;;
15567;SDS011;7885;42.596;23.044;2023-01-05T05:14:29;55.53;;;42.10;;
15567;SDS011;7885;42.596;23.044;2023-01-05T05:16:56;44.50;;;34.67;;
15567;SDS011;7885;42.596;23.044;2023-01-05T05:19:23;38.17;;;28.17;;
15567;SDS011;7885;42.596;23.044;2023-01-05T05:21:49;36.27;;;26.73;;
15567;SDS011;7885;42.596;23.044;2023-01-05T05:24:16;29.27;;;21.67;;
15567;SDS011;7885;42.596;23.044;2023-01-05T05:26:43;30.60;;;22.77;;
15567;SDS011;7885;42.596;23.044;2023-01-05T05:29:10;28.97;;;20.73;;
15567;SDS011;7885;42.596;23.044;2023-01-05T05:31:38;33.27;;;22.97;;
15567;SDS011;7885;42.596;23.044;2023-01-05T05:34:05;31.57;;;23.30;;
15567;SDS011;7885;42.596;23.044;2023-01-05T05:36:32;33.67;;;23.83;;
15567;SDS011;7885;42.596;23.044;2023-01-05T05:39:00;34.00;;;23.90;;
15567;SDS011;7885;42.596;23.044;2023-01-05T05:41:27;36.90;;;25.07;;
15567;SDS011;7885;42.596;23.044;2023-01-05T05:43:53;36.43;;;26.90;;
15567;SDS011;7885;42.596;23.044;2023-01-05T05:46:24;33.43;;;24.80;;
15567;SDS011;7885;42.596;23.044;2023-01-05T05:48:53;35.20;;;26.20;;
15567;SDS011;7885;42.596;23.044;2023-01-05T05:51:20;31.43;;;23.00;;
15567;SDS011;7885;42.596;23.044;2023-01-05T05:53:47;32.07;;;24.17;;
15567;SDS011;7885;42.596;23.044;2023-01-05T05:56:14;41.67;;;27.87;;
15567;SDS011;7885;42.596;23.044;2023-01-05T05:58:41;35.40;;;25.93;;
15567;SDS011;7885;42.596;23.044;2023-01-05T06:01:07;38.10;;;25.53;;
15567;SDS011;7885;42.596;23.044;2023-01-05T06:03:35;32.70;;;26.77;;
15567;SDS011;7885;42.596;23.044;2023-01-05T06:06:03;33.83;;;26.10;;
15567;SDS011;7885;42.596;23.044;2023-01-05T06:08:30;33.03;;;26.30;;
15567;SDS011;7885;42.596;23.044;2023-01-05T06:10:57;37.17;;;27.33;;
15567;SDS011;7885;42.596;23.044;2023-01-05T06:13:24;35.27;;;27.70;;
15567;SDS011;7885;42.596;23.044;2023-01-05T06:15:51;35.03;;;27.73;;
15567;SDS011;7885;42.596;23.044;2023-01-05T06:18:18;34.17;;;28.53;;
15567;SDS011;7885;42.596;23.044;2023-01-05T06:20:45;32.27;;;25.93;;
15567;SDS011;7885;42.596;23.044;2023-01-05T06:23:13;26.83;;;22.87;;
15567;SDS011;7885;42.596;23.044;2023-01-05T06:25:40;30.17;;;22.87;;
15567;SDS011;7885;42.596;23.044;2023-01-05T06:28:06;29.60;;;24.07;;
15567;SDS011;7885;42.596;23.044;2023-01-05T06:30:33;30.67;;;24.80;;
15567;SDS011;7885;42.596;23.044;2023-01-05T06:33:00;23.20;;;19.93;;
15567;SDS011;7885;42.596;23.044;2023-01-05T06:35:27;16.90;;;13.97;;
15567;SDS011;7885;42.596;23.044;2023-01-05T06:37:54;13.13;;;11.70;;
15567;SDS011;7885;42.596;23.044;2023-01-05T06:40:22;13.00;;;11.53;;
15567;SDS011;7885;42.596;23.044;2023-01-05T06:42:49;12.83;;;11.33;;
15567;SDS011;7885;42.596;23.044;2023-01-05T06:45:16;12.60;;;10.70;;
15567;SDS011;7885;42.596;23.044;2023-01-05T06:47:42;14.83;;;12.20;;
15567;SDS011;7885;42.596;23.044;2023-01-05T06:50:09;15.80;;;13.63;;
15567;SDS011;7885;42.596;23.044;2023-01-05T06:52:36;14.63;;;13.03;;
15567;SDS011;7885;42.596;23.044;2023-01-05T06:55:04;17.03;;;13.67;;
15567;SDS011;7885;42.596;23.044;2023-01-05T06:57:33;19.43;;;15.80;;
15567;SDS011;7885;42.596;23.044;2023-01-05T07:00:01;33.37;;;28.73;;
15567;SDS011;7885;42.596;23.044;2023-01-05T07:02:30;39.33;;;31.63;;
15567;SDS011;7885;42.596;23.044;2023-01-05T07:04:57;29.13;;;20.63;;
15567;SDS011;7885;42.596;23.044;2023-01-05T07:07:24;37.77;;;29.13;;
15567;SDS011;7885;42.596;23.044;2023-01-05T07:09:51;35.13;;;27.33;;
15567;SDS011;7885;42.596;23.044;2023-01-05T07:12:18;42.07;;;33.50;;
15567;SDS011;7885;42.596;23.044;2023-01-05T07:14:46;52.90;;;38.83;;
15567;SDS011;7885;42.596;23.044;2023-01-05T07:17:13;58.97;;;44.40;;
15567;SDS011;7885;42.596;23.044;2023-01-05T07:19:40;56.57;;;42.03;;
15567;SDS011;7885;42.596;23.044;2023-01-05T07:22:07;75.03;;;50.10;;
15567;SDS011;7885;42.596;23.044;2023-01-05T07:24:33;24.07;;;18.50;;
15567;SDS011;7885;42.596;23.044;2023-01-05T07:27:00;20.67;;;17.83;;
15567;SDS011;7885;42.596;23.044;2023-01-05T07:29:28;73.77;;;49.97;;
15567;SDS011;7885;42.596;23.044;2023-01-05T07:31:56;75.23;;;51.83;;
15567;SDS011;7885;42.596;23.044;2023-01-05T07:34:23;65.90;;;46.93;;
15567;SDS011;7885;42.596;23.044;2023-01-05T07:36:50;58.53;;;43.67;;
15567;SDS011;7885;42.596;23.044;2023-01-05T07:39:17;55.97;;;41.80;;
15567;SDS011;7885;42.596;23.044;2023-01-05T07:41:44;45.17;;;35.17;;
15567;SDS011;7885;42.596;23.044;2023-01-05T07:44:11;43.40;;;33.57;;
15567;SDS011;7885;42.596;23.044;2023-01-05T07:46:38;34.13;;;27.07;;
15567;SDS011;7885;42.596;23.044;2023-01-05T07:49:06;40.33;;;33.00;;
15567;SDS011;7885;42.596;23.044;2023-01-05T07:51:33;23.60;;;18.60;;
15567;SDS011;7885;42.596;23.044;2023-01-05T07:54:01;21.40;;;17.80;;
15567;SDS011;7885;42.596;23.044;2023-01-05T07:56:27;17.67;;;15.00;;
15567;SDS011;7885;42.596;23.044;2023-01-05T07:58:54;13.67;;;12.10;;
15567;SDS011;7885;42.596;23.044;2023-01-05T08:01:21;13.43;;;11.10;;
15567;SDS011;7885;42.596;23.044;2023-01-05T08:03:48;12.90;;;11.53;;
15567;SDS011;7885;42.596;23.044;2023-01-05T08:06:17;12.70;;;10.87;;
15567;SDS011;7885;42.596;23.044;2023-01-05T08:08:45;13.63;;;11.93;;
15567;SDS011;7885;42.596;23.044;2023-01-05T08:11:13;12.13;;;10.83;;
15567;SDS011;7885;42.596;23.044;2023-01-05T08:13:40;8.87;;;7.97;;
15567;SDS011;7885;42.596;23.044;2023-01-05T08:16:45;10.33;;;9.33;;
15567;SDS011;7885;42.596;23.044;2023-01-05T08:19:12;8.30;;;7.03;;
15567;SDS011;7885;42.596;23.044;2023-01-05T08:21:41;8.53;;;7.27;;
15567;SDS011;7885;42.596;23.044;2023-01-05T08:24:07;8.60;;;7.80;;
15567;SDS011;7885;42.596;23.044;2023-01-05T08:26:34;8.97;;;6.97;;
15567;SDS011;7885;42.596;23.044;2023-01-05T08:29:01;7.80;;;7.00;;
15567;SDS011;7885;42.596;23.044;2023-01-05T08:31:29;8.00;;;7.20;;
15567;SDS011;7885;42.596;23.044;2023-01-05T08:34:01;8.03;;;6.20;;
15567;SDS011;7885;42.596;23.044;2023-01-05T08:36:28;7.67;;;6.87;;
15567;SDS011;7885;42.596;23.044;2023-01-05T08:38:58;8.03;;;7.30;;
15567;SDS011;7885;42.596;23.044;2023-01-05T08:41:29;7.00;;;6.40;;
15567;SDS011;7885;42.596;23.044;2023-01-05T08:43:57;8.53;;;7.57;;
15567;SDS011;7885;42.596;23.044;2023-01-05T08:46:26;9.53;;;8.63;;
15567;SDS011;7885;42.596;23.044;2023-01-05T08:48:56;7.13;;;6.43;;
15567;SDS011;7885;42.596;23.044;2023-01-05T08:51:24;6.37;;;5.77;;
15567;SDS011;7885;42.596;23.044;2023-01-05T08:53:51;6.67;;;5.70;;
15567;SDS011;7885;42.596;23.044;2023-01-05T08:56:20;6.10;;;5.60;;
15567;SDS011;7885;42.596;23.044;2023-01-05T08:58:49;6.47;;;5.90;;
15567;SDS011;7885;42.596;23.044;2023-01-05T09:01:19;5.50;;;5.00;;
15567;SDS011;7885;42.596;23.044;2023-01-05T09:03:47;5.93;;;5.43;;
15567;SDS011;7885;42.596;23.044;2023-01-05T09:06:14;5.77;;;5.27;;
15567;SDS011;7885;42.596;23.044;2023-01-05T09:08:41;5.60;;;5.13;;
15567;SDS011;7885;42.596;23.044;2023-01-05T09:11:09;6.87;;;6.27;;
15567;SDS011;7885;42.596;23.044;2023-01-05T09:13:39;12.00;;;5.53;;
15567;SDS011;7885;42.596;23.044;2023-01-05T09:16:08;6.53;;;5.90;;
15567;SDS011;7885;42.596;23.044;2023-01-05T09:18:38;7.47;;;5.83;;
15567;SDS011;7885;42.596;23.044;2023-01-05T09:21:07;7.50;;;6.30;;
15567;SDS011;7885;42.596;23.044;2023-01-05T09:23:35;6.20;;;5.70;;
15567;SDS011;7885;42.596;23.044;2023-01-05T09:26:03;6.37;;;5.77;;
15567;SDS011;7885;42.596;23.044;2023-01-05T09:28:30;6.30;;;5.70;;
15567;SDS011;7885;42.596;23.044;2023-01-05T09:30:58;6.10;;;5.50;;
15567;SDS011;7885;42.596;23.044;2023-01-05T09:33:25;6.53;;;5.93;;
15567;SDS011;7885;42.596;23.044;2023-01-05T09:35:52;6.40;;;5.70;;
15567;SDS011;7885;42.596;23.044;2023-01-05T09:38:20;6.33;;;5.77;;
15567;SDS011;7885;42.596;23.044;2023-01-05T09:40:47;6.30;;;5.80;;
15567;SDS011;7885;42.596;23.044;2023-01-05T09:43:19;6.30;;;5.80;;
15567;SDS011;7885;42.596;23.044;2023-01-05T09:45:48;6.63;;;6.03;;
15567;SDS011;7885;42.596;23.044;2023-01-05T09:48:17;9.73;;;6.20;;
15567;SDS011;7885;42.596;23.044;2023-01-05T09:50:46;6.70;;;6.07;;
15567;SDS011;7885;42.596;23.044;2023-01-05T09:53:15;6.10;;;5.60;;
15567;SDS011;7885;42.596;23.044;2023-01-05T09:55:44;6.30;;;5.77;;
15567;SDS011;7885;42.596;23.044;2023-01-05T09:58:15;5.93;;;5.33;;
15567;SDS011;7885;42.596;23.044;2023-01-05T10:00:46;6.20;;;5.60;;
15567;SDS011;7885;42.596;23.044;2023-01-05T10:03:28;6.57;;;5.97;;
15567;SDS011;7885;42.596;23.044;2023-01-05T10:05:56;5.97;;;5.43;;
15567;SDS011;7885;42.596;23.044;2023-01-05T10:08:26;6.20;;;5.70;;
15567;SDS011;7885;42.596;23.044;2023-01-05T10:11:00;6.67;;;5.80;;
15567;SDS011;7885;42.596;23.044;2023-01-05T10:13:51;6.23;;;5.70;;
15567;SDS011;7885;42.596;23.044;2023-01-05T10:16:23;7.47;;;6.30;;
15567;SDS011;7885;42.596;23.044;2023-01-05T10:18:51;6.03;;;5.53;;
15567;SDS011;7885;42.596;23.044;2023-01-05T10:21:21;6.50;;;5.90;;
15567;SDS011;7885;42.596;23.044;2023-01-05T10:24:00;6.20;;;5.70;;
15567;SDS011;7885;42.596;23.044;2023-01-05T10:26:37;5.73;;;5.23;;
15567;SDS011;7885;42.596;23.044;2023-01-05T10:29:10;6.70;;;5.90;;
15567;SDS011;7885;42.596;23.044;2023-01-05T10:31:43;5.90;;;5.37;;
15567;SDS011;7885;42.596;23.044;2023-01-05T10:34:17;5.90;;;5.37;;
15567;SDS011;7885;42.596;23.044;2023-01-05T10:36:50;6.30;;;5.77;;
15567;SDS011;7885;42.596;23.044;2023-01-05T10:39:51;6.10;;;5.60;;
15567;SDS011;7885;42.596;23.044;2023-01-05T10:42:40;5.63;;;5.10;;
15567;SDS011;7885;42.596;23.044;2023-01-05T10:45:13;6.63;;;5.67;;
15567;SDS011;7885;42.596;23.044;2023-01-05T10:47:42;6.30;;;5.70;;
15567;SDS011;7885;42.596;23.044;2023-01-05T10:50:28;5.53;;;5.03;;
15567;SDS011;7885;42.596;23.044;2023-01-05T10:53:04;5.90;;;5.30;;
15567;SDS011;7885;42.596;23.044;2023-01-05T10:55:37;5.93;;;5.37;;
15567;SDS011;7885;42.596;23.044;2023-01-05T10:58:19;5.90;;;5.40;;
15567;SDS011;7885;42.596;23.044;2023-01-05T11:00:49;6.03;;;5.53;;
15567;SDS011;7885;42.596;23.044;2023-01-05T11:03:20;6.07;;;5.50;;
15567;SDS011;7885;42.596;23.044;2023-01-05T11:05:54;5.87;;;5.30;;
15567;SDS011;7885;42.596;23.044;2023-01-05T11:08:25;5.50;;;5.00;;
15567;SDS011;7885;42.596;23.044;2023-01-05T11:10:54;5.30;;;4.80;;
15567;SDS011;7885;42.596;23.044;2023-01-05T11:13:30;5.97;;;5.47;;
15567;SDS011;7885;42.596;23.044;2023-01-05T11:15:59;5.37;;;4.87;;
15567;SDS011;7885;42.596;23.044;2023-01-05T11:18:33;5.30;;;4.80;;
15567;SDS011;7885;42.596;23.044;2023-01-05T11:21:08;5.30;;;4.80;;
15567;SDS011;7885;42.596;23.044;2023-01-05T11:23:40;6.70;;;4.80;;
15567;SDS011;7885;42.596;23.044;2023-01-05T11:26:28;5.37;;;4.80;;
15567;SDS011;7885;42.596;23.044;2023-01-05T11:29:00;5.70;;;5.20;;
15567;SDS011;7885;42.596;23.044;2023-01-05T11:31:38;7.33;;;5.97;;
15567;SDS011;7885;42.596;23.044;2023-01-05T11:34:12;5.60;;;5.10;;
15567;SDS011;7885;42.596;23.044;2023-01-05T11:36:54;6.53;;;5.83;;
15567;SDS011;7885;42.596;23.044;2023-01-05T11:39:25;6.00;;;5.40;;
15567;SDS011;7885;42.596;23.044;2023-01-05T11:42:05;6.03;;;5.53;;
15567;SDS011;7885;42.596;23.044;2023-01-05T11:44:35;5.60;;;5.10;;
15567;SDS011;7885;42.596;23.044;2023-01-05T11:47:03;6.27;;;5.50;;
15567;SDS011;7885;42.596;23.044;2023-01-05T11:49:33;5.37;;;4.87;;
15567;SDS011;7885;42.596;23.044;2023-01-05T11:52:02;5.43;;;4.93;;
15567;SDS011;7885;42.596;23.044;2023-01-05T11:54:33;5.63;;;5.13;;
15567;SDS011;7885;42.596;23.044;2023-01-05T11:57:07;5.83;;;5.27;;
15567;SDS011;7885;42.596;23.044;2023-01-05T11:59:39;5.53;;;5.03;;
15567;SDS011;7885;42.596;23.044;2023-01-05T12:02:11;5.73;;;5.23;;
15567;SDS011;7885;42.596;23.044;2023-01-05T12:05:00;6.43;;;5.60;;
15567;SDS011;7885;42.596;23.044;2023-01-05T12:07:40;8.20;;;5.30;;
15567;SDS011;7885;42.596;23.044;2023-01-05T12:10:17;6.83;;;5.40;;
15567;SDS011;7885;42.596;23.044;2023-01-05T12:12:57;6.30;;;5.73;;
15567;SDS011;7885;42.596;23.044;2023-01-05T12:15:33;6.57;;;5.57;;
15567;SDS011;7885;42.596;23.044;2023-01-05T12:18:19;4.93;;;4.43;;
15567;SDS011;7885;42.596;23.044;2023-01-05T12:20:56;5.50;;;5.00;;
15567;SDS011;7885;42.596;23.044;2023-01-05T12:23:33;5.70;;;4.90;;
15567;SDS011;7885;42.596;23.044;2023-01-05T12:26:21;5.30;;;4.80;;
15567;SDS011;7885;42.596;23.044;2023-01-05T12:28:55;5.90;;;5.00;;
15567;SDS011;7885;42.596;23.044;2023-01-05T12:31:34;5.30;;;4.80;;
15567;SDS011;7885;42.596;23.044;2023-01-05T12:34:15;6.23;;;4.40;;
15567;SDS011;7885;42.596;23.044;2023-01-05T12:37:05;5.30;;;4.67;;
15567;SDS011;7885;42.596;23.044;2023-01-05T12:40:01;5.47;;;4.97;;
15567;SDS011;7885;42.596;23.044;2023-01-05T12:45:40;5.47;;;4.97;;
15567;SDS011;7885;42.596;23.044;2023-01-05T12:48:14;6.80;;;5.23;;
15567;SDS011;7885;42.596;23.044;2023-01-05T12:50:45;5.70;;;5.20;;
15567;SDS011;7885;42.596;23.044;2023-01-05T12:53:17;6.17;;;5.67;;
15567;SDS011;7885;42.596;23.044;2023-01-05T12:55:55;6.53;;;5.47;;
15567;SDS011;7885;42.596;23.044;2023-01-05T12:58:26;5.83;;;5.10;;
15567;SDS011;7885;42.596;23.044;2023-01-05T13:00:58;5.60;;;5.10;;
15567;SDS011;7885;42.596;23.044;2023-01-05T13:03:26;5.77;;;5.23;;
15567;SDS011;7885;42.596;23.044;2023-01-05T13:05:59;5.87;;;5.27;;
15567;SDS011;7885;42.596;23.044;2023-01-05T13:08:32;6.27;;;5.67;;
15567;SDS011;7885;42.596;23.044;2023-01-05T13:11:08;5.90;;;5.30;;
15567;SDS011;7885;42.596;23.044;2023-01-05T13:13:41;6.20;;;5.33;;
15567;SDS011;7885;42.596;23.044;2023-01-05T13:16:12;9.80;;;8.80;;
15567;SDS011;7885;42.596;23.044;2023-01-05T13:18:44;5.70;;;5.20;;
15567;SDS011;7885;42.596;23.044;2023-01-05T13:21:14;6.63;;;6.00;;
15567;SDS011;7885;42.596;23.044;2023-01-05T13:23:42;5.80;;;5.30;;
15567;SDS011;7885;42.596;23.044;2023-01-05T13:26:15;6.13;;;5.50;;
15567;SDS011;7885;42.596;23.044;2023-01-05T13:28:44;6.57;;;5.37;;
15567;SDS011;7885;42.596;23.044;2023-01-05T13:31:21;6.27;;;5.67;;
15567;SDS011;7885;42.596;23.044;2023-01-05T13:34:09;8.60;;;7.70;;
15567;SDS011;7885;42.596;23.044;2023-01-05T13:36:51;12.90;;;10.20;;
15567;SDS011;7885;42.596;23.044;2023-01-05T13:39:35;11.00;;;8.57;;
15567;SDS011;7885;42.596;23.044;2023-01-05T13:42:17;5.70;;;5.20;;
15567;SDS011;7885;42.596;23.044;2023-01-05T13:44:58;6.03;;;5.43;;
15567;SDS011;7885;42.596;23.044;2023-01-05T13:47:49;5.70;;;5.20;;
15567;SDS011;7885;42.596;23.044;2023-01-05T13:50:43;10.43;;;6.27;;
15567;SDS011;7885;42.596;23.044;2023-01-05T13:53:22;7.43;;;6.00;;
15567;SDS011;7885;42.596;23.044;2023-01-05T13:55:52;8.77;;;6.90;;
15567;SDS011;7885;42.596;23.044;2023-01-05T14:01:11;5.23;;;4.83;;
15567;SDS011;7885;42.596;23.044;2023-01-05T14:03:46;6.43;;;5.83;;
15567;SDS011;7885;42.596;23.044;2023-01-05T14:06:17;6.13;;;5.63;;
15567;SDS011;7885;42.596;23.044;2023-01-05T14:08:49;6.30;;;5.73;;
15567;SDS011;7885;42.596;23.044;2023-01-05T14:11:21;5.43;;;4.93;;
15567;SDS011;7885;42.596;23.044;2023-01-05T14:13:52;5.70;;;5.10;;
15567;SDS011;7885;42.596;23.044;2023-01-05T14:19:19;5.87;;;5.37;;
15567;SDS011;7885;42.596;23.044;2023-01-05T14:22:23;6.10;;;5.60;;
15567;SDS011;7885;42.596;23.044;2023-01-05T14:28:19;6.27;;;5.67;;
15567;SDS011;7885;42.596;23.044;2023-01-05T14:34:12;6.50;;;5.90;;
15567;SDS011;7885;42.596;23.044;2023-01-05T14:36:42;6.13;;;5.53;;
15567;SDS011;7885;42.596;23.044;2023-01-05T14:39:24;12.00;;;10.43;;
15567;SDS011;7885;42.596;23.044;2023-01-05T14:42:05;7.13;;;6.37;;
15567;SDS011;7885;42.596;23.044;2023-01-05T14:44:42;9.23;;;7.53;;
15567;SDS011;7885;42.596;23.044;2023-01-05T14:47:10;9.80;;;8.63;;
15567;SDS011;7885;42.596;23.044;2023-01-05T14:49:39;10.13;;;7.77;;
15567;SDS011;7885;42.596;23.044;2023-01-05T14:52:14;6.27;;;5.67;;
15567;SDS011;7885;42.596;23.044;2023-01-05T14:57:51;6.43;;;5.83;;
15567;SDS011;7885;42.596;23.044;2023-01-05T15:03:10;6.93;;;6.33;;
15567;SDS011;7885;42.596;23.044;2023-01-05T15:05:48;9.60;;;8.67;;
15567;SDS011;7885;42.596;23.044;2023-01-05T15:08:27;7.40;;;6.60;;
15567;SDS011;7885;42.596;23.044;2023-01-05T15:11:22;6.90;;;6.27;;
15567;SDS011;7885;42.596;23.044;2023-01-05T15:14:07;6.83;;;6.13;;
15567;SDS011;7885;42.596;23.044;2023-01-05T15:20:02;10.07;;;6.77;;
15567;SDS011;7885;42.596;23.044;2023-01-05T15:22:48;11.70;;;8.40;;
15567;SDS011;7885;42.596;23.044;2023-01-05T15:25:33;8.17;;;6.87;;
15567;SDS011;7885;42.596;23.044;2023-01-05T15:28:29;8.07;;;6.53;;